Terminal Aerodrome Forecast
Issued by NWS Cleveland, OH

Home | Current Version | Previous Version | Text Only | Print | Product List | Glossary Off
Versions: 1 2 3 4 5 6 7 8 9 10 11 12 13

037
FTUS41 KCLE 221137
TAFMFD
TAF
KMFD 221137Z 2212/2312 06007KT P6SM BKN250
     FM230500 10007KT P6SM SKC=

USA.gov is the U.S. government's official web portal to all federal, state and local government web resources and services.